createdAt,value
2023-03-22T00:00:30.865Z,63.41
2023-03-22T00:03:57.845Z,58.95
2023-03-22T00:07:03.475Z,57.92
2023-03-22T00:10:21.998Z,60.93
2023-03-22T00:13:29.841Z,63.86
2023-03-22T00:16:35.350Z,63.14
2023-03-22T00:20:01.106Z,59.95
2023-03-22T00:23:27.240Z,58.82
2023-03-22T00:26:41.519Z,60.39
2023-03-22T00:29:50.241Z,63.75
2023-03-22T00:32:58.344Z,63.99
2023-03-22T00:36:05.932Z,62.71
2023-03-22T00:39:31.632Z,62.44
2023-03-22T00:46:26.320Z,59.74
2023-03-22T00:49:50.657Z,56.60
2023-03-22T00:53:35.371Z,58.14
2023-03-22T00:56:45.683Z,62.39
2023-03-22T01:00:09.570Z,64.19
2023-03-22T01:03:35.277Z,63.55
2023-03-22T01:07:02.096Z,61.62
2023-03-22T01:10:33.269Z,58.35
2023-03-22T01:13:39.306Z,58.10
2023-03-22T01:16:57.768Z,61.78
2023-03-22T01:20:22.169Z,63.68
2023-03-22T01:23:45.169Z,61.15
2023-03-22T01:27:03.394Z,60.52
2023-03-22T01:30:10.566Z,58.63
2023-03-22T01:33:19.298Z,60.08
2023-03-22T01:36:43.491Z,63.20
2023-03-22T01:39:52.079Z,64.79
2023-03-22T01:43:05.462Z,63.36
2023-03-22T01:46:13.545Z,61.86
2023-03-22T01:49:27.360Z,60.93
2023-03-22T01:52:32.921Z,59.70
2023-03-22T01:55:43.751Z,56.51
2023-03-22T01:58:56.127Z,59.06
2023-03-22T02:02:08.469Z,62.47
2023-03-22T02:05:23.299Z,64.96
2023-03-22T02:08:29.359Z,62.86
2023-03-22T02:12:04.427Z,60.95
2023-03-22T02:15:17.554Z,62.54
2023-03-22T02:18:52.339Z,61.49
2023-03-22T02:22:32.102Z,58.65
2023-03-22T02:26:10.539Z,58.40
2023-03-22T02:29:22.097Z,60.73
2023-03-22T02:33:07.931Z,64.48
2023-03-22T02:36:26.955Z,65.07
2023-03-22T02:39:59.397Z,62.64
2023-03-22T02:43:14.383Z,60.82
2023-03-22T02:46:32.184Z,60.86
2023-03-22T02:50:03.486Z,61.06
2023-03-22T02:53:15.051Z,62.91
2023-03-22T02:56:41.351Z,62.37
2023-03-22T03:00:12.580Z,62.05
2023-03-22T03:07:01.913Z,58.95
2023-03-22T03:10:39.602Z,60.62
2023-03-22T03:13:49.528Z,63.97
2023-03-22T03:17:12.801Z,67.80
2023-03-22T03:20:24.336Z,66.05
2023-03-22T03:23:50.324Z,62.79
2023-03-22T03:27:00.399Z,63.09
2023-03-22T03:30:23.465Z,62.43
2023-03-22T03:33:54.493Z,62.72
2023-03-22T03:37:03.103Z,63.92
2023-03-22T03:40:29.127Z,63.38
2023-03-22T03:43:44.557Z,61.40
2023-03-22T03:46:54.075Z,61.74
2023-03-22T03:50:04.556Z,59.05
2023-03-22T03:53:50.282Z,59.50
2023-03-22T03:57:16.826Z,64.70
2023-03-22T04:00:58.945Z,66.69
2023-03-22T04:04:29.494Z,67.45
2023-03-22T04:07:58.463Z,66.46
2023-03-22T04:11:24.242Z,65.07
2023-03-22T04:14:49.935Z,65.01
2023-03-22T04:18:16.703Z,64.25
2023-03-22T04:21:43.736Z,63.79
2023-03-22T04:25:12.284Z,62.12
2023-03-22T04:28:56.710Z,62.18
2023-03-22T04:32:24.234Z,61.97
2023-03-22T04:35:50.514Z,61.79
2023-03-22T04:39:16.322Z,62.53
2023-03-22T04:42:42.063Z,62.28
2023-03-22T04:46:13.714Z,62.48
2023-03-22T04:49:42.314Z,63.09
2023-03-22T04:53:08.614Z,62.68
2023-03-22T04:56:34.378Z,63.09
2023-03-22T04:59:59.957Z,61.91
2023-03-22T05:03:26.154Z,62.72
2023-03-22T05:06:51.969Z,61.69
2023-03-22T05:10:20.612Z,62.42
2023-03-22T05:13:48.658Z,61.73
2023-03-22T05:17:14.389Z,62.53
2023-03-22T05:20:41.102Z,62.58
2023-03-22T05:24:10.580Z,62.60
2023-03-22T05:27:39.441Z,62.36
2023-03-22T05:31:08.437Z,62.42
2023-03-22T05:34:42.931Z,62.20
2023-03-22T05:38:15.017Z,61.90
2023-03-22T05:41:41.190Z,61.62
2023-03-22T05:45:08.138Z,61.81
2023-03-22T05:48:33.917Z,61.83
2023-03-22T05:52:00.159Z,60.94
2023-03-22T05:55:26.297Z,61.39
2023-03-22T05:58:52.469Z,60.88
2023-03-22T06:02:18.371Z,61.17
2023-03-22T06:05:44.083Z,61.41
2023-03-22T06:09:16.907Z,60.84
2023-03-22T06:12:43.276Z,61.90
2023-03-22T06:16:09.567Z,61.43
2023-03-22T06:19:35.558Z,62.03
2023-03-22T06:23:01.213Z,61.49
2023-03-22T06:26:27.278Z,61.70
2023-03-22T06:29:54.970Z,61.84
2023-03-22T06:33:20.612Z,61.69
2023-03-22T06:36:46.465Z,61.91
2023-03-22T06:40:13.546Z,61.63
2023-03-22T06:43:39.333Z,61.66
2023-03-22T06:47:05.054Z,61.20
2023-03-22T06:50:44.353Z,61.26
2023-03-22T06:54:14.821Z,61.55
2023-03-22T06:57:40.580Z,61.56
2023-03-22T07:01:06.642Z,61.06
2023-03-22T07:04:33.283Z,60.85
2023-03-22T07:07:59.800Z,60.42
2023-03-22T07:11:27.116Z,60.35
2023-03-22T07:14:55.062Z,60.15
2023-03-22T07:18:23.125Z,60.36
2023-03-22T07:21:48.799Z,60.34
2023-03-22T07:25:14.606Z,59.29
2023-03-22T07:28:44.234Z,59.66
2023-03-22T07:32:10.068Z,63.22
2023-03-22T07:35:37.139Z,66.42
2023-03-22T07:39:02.924Z,64.31
2023-03-22T07:42:28.840Z,62.46
2023-03-22T07:45:53.162Z,61.00
2023-03-22T07:49:32.464Z,60.44
2023-03-22T07:52:57.995Z,60.77
2023-03-22T07:56:23.966Z,60.22
2023-03-22T07:59:49.930Z,57.89
2023-03-22T08:03:37.714Z,63.26
2023-03-22T08:07:03.342Z,63.67
2023-03-22T08:10:29.107Z,62.16
2023-03-22T08:13:55.743Z,60.74
2023-03-22T08:17:21.793Z,60.26
2023-03-22T08:20:47.487Z,59.79
2023-03-22T08:24:14.166Z,59.61
2023-03-22T08:27:28.901Z,57.37
2023-03-22T08:30:54.999Z,61.00
2023-03-22T08:34:20.930Z,64.89
2023-03-22T08:37:46.599Z,63.50
2023-03-22T08:41:12.794Z,61.51
2023-03-22T08:44:59.891Z,60.41
2023-03-22T08:48:28.061Z,58.60
2023-03-22T08:52:17.520Z,60.88
2023-03-22T08:55:49.178Z,62.82
2023-03-22T08:59:23.990Z,61.36
2023-03-22T09:02:50.406Z,58.65
2023-03-22T09:06:16.470Z,58.89
2023-03-22T09:09:42.049Z,62.93
2023-03-22T09:13:07.827Z,62.73
2023-03-22T09:16:33.573Z,60.61
2023-03-22T09:20:11.951Z,59.33
2023-03-22T09:23:40.743Z,58.58
2023-03-22T09:27:06.967Z,60.57
2023-03-22T09:30:32.772Z,62.93
2023-03-22T09:33:58.621Z,61.47
2023-03-22T09:37:30.550Z,58.93
2023-03-22T09:41:01.795Z,58.90
2023-03-22T09:44:29.577Z,61.56
2023-03-22T09:47:56.698Z,62.40
2023-03-22T09:51:30.927Z,58.64
2023-03-22T09:54:56.627Z,60.02
2023-03-22T09:58:49.171Z,62.41
2023-03-22T10:02:24.768Z,61.56
2023-03-22T10:05:54.061Z,57.64
2023-03-22T10:09:22.709Z,59.26
2023-03-22T10:12:55.011Z,60.39
2023-03-22T10:16:26.990Z,62.60
2023-03-22T10:19:57.233Z,61.34
2023-03-22T10:23:28.020Z,57.05
2023-03-22T10:27:03.173Z,56.72
2023-03-22T10:30:32.639Z,59.52
2023-03-22T10:34:01.475Z,60.73
2023-03-22T10:37:32.158Z,61.60
2023-03-22T10:41:01.206Z,60.74
2023-03-22T10:44:28.011Z,61.70
2023-03-22T10:48:03.290Z,61.44
2023-03-22T10:51:32.307Z,61.11
2023-03-22T10:55:03.072Z,62.05
2023-03-22T10:58:33.679Z,61.68
2023-03-22T11:02:03.753Z,58.65
2023-03-22T11:05:30.685Z,58.49
2023-03-22T11:08:58.856Z,58.92
2023-03-22T11:12:26.743Z,59.53
2023-03-22T11:15:53.553Z,60.54
2023-03-22T11:19:23.465Z,60.60
2023-03-22T11:22:49.528Z,60.98
2023-03-22T11:26:15.822Z,60.99
2023-03-22T11:29:44.204Z,61.27
2023-03-22T11:33:19.274Z,60.02
2023-03-22T11:40:19.343Z,59.70
2023-03-22T11:43:49.920Z,60.28
2023-03-22T11:47:17.032Z,60.69
2023-03-22T11:50:44.358Z,60.27
2023-03-22T11:54:12.036Z,60.12
2023-03-22T11:57:38.177Z,60.29
2023-03-22T12:01:06.836Z,60.05
2023-03-22T12:04:35.684Z,59.89
2023-03-22T12:08:08.650Z,59.33
2023-03-22T12:11:37.214Z,58.50
2023-03-22T12:15:05.150Z,58.56
2023-03-22T12:18:33.558Z,58.00
2023-03-22T12:22:00.054Z,57.17
2023-03-22T12:25:28.291Z,56.77
2023-03-22T12:28:56.616Z,56.79
2023-03-22T12:32:25.445Z,54.71
2023-03-22T12:35:52.410Z,56.11
2023-03-22T12:39:22.109Z,56.82
2023-03-22T12:42:54.134Z,56.73
2023-03-22T12:46:25.277Z,56.43
2023-03-22T12:49:55.637Z,57.20
2023-03-22T12:53:43.339Z,57.12
2023-03-22T12:57:09.708Z,57.32
2023-03-22T13:00:39.752Z,57.51
2023-03-22T13:04:19.742Z,57.74
2023-03-22T13:07:53.135Z,57.97
2023-03-22T13:11:24.770Z,58.22
2023-03-22T13:14:57.804Z,58.62
2023-03-22T13:18:33.577Z,58.27
2023-03-22T13:22:19.854Z,58.00
2023-03-22T13:25:58.986Z,57.21
2023-03-22T13:29:26.097Z,56.42
2023-03-22T13:32:56.533Z,56.13
2023-03-22T13:36:25.368Z,56.24
2023-03-22T13:39:46.473Z,56.03
2023-03-22T13:43:13.905Z,56.09
2023-03-22T13:46:47.932Z,56.25
2023-03-22T13:50:17.091Z,55.84
2023-03-22T13:53:36.755Z,55.05
2023-03-22T13:57:02.369Z,55.03
2023-03-22T14:00:44.911Z,55.10
2023-03-22T14:04:12.904Z,54.74
2023-03-22T14:07:41.665Z,54.77
2023-03-22T14:11:15.704Z,54.79
2023-03-22T14:15:47.215Z,54.42
2023-03-22T14:18:34.401Z,54.97
